sensor_id;sensor_type;location;lat;lon;timestamp;P1;durP1;ratioP1;P2;durP2;ratioP2
4837;SDS011;2433;48.768;9.154;2022-12-07T00:01:27;8.90;;;6.30;;
4837;SDS011;2433;48.768;9.154;2022-12-07T00:03:54;7.63;;;5.78;;
4837;SDS011;2433;48.768;9.154;2022-12-07T00:06:30;7.13;;;5.20;;
4837;SDS011;2433;48.768;9.154;2022-12-07T00:08:56;6.55;;;5.85;;
4837;SDS011;2433;48.768;9.154;2022-12-07T00:11:23;11.18;;;6.75;;
4837;SDS011;2433;48.768;9.154;2022-12-07T00:13:58;9.33;;;5.10;;
4837;SDS011;2433;48.768;9.154;2022-12-07T00:16:26;8.65;;;5.43;;
4837;SDS011;2433;48.768;9.154;2022-12-07T00:18:54;9.80;;;6.50;;
4837;SDS011;2433;48.768;9.154;2022-12-07T00:21:21;7.60;;;5.03;;
4837;SDS011;2433;48.768;9.154;2022-12-07T00:23:48;7.18;;;5.05;;
4837;SDS011;2433;48.768;9.154;2022-12-07T00:28:45;7.75;;;5.50;;
4837;SDS011;2433;48.768;9.154;2022-12-07T00:31:22;8.80;;;4.85;;
4837;SDS011;2433;48.768;9.154;2022-12-07T00:33:49;7.20;;;5.45;;
4837;SDS011;2433;48.768;9.154;2022-12-07T00:36:15;9.70;;;6.97;;
4837;SDS011;2433;48.768;9.154;2022-12-07T00:38:42;6.93;;;5.63;;
4837;SDS011;2433;48.768;9.154;2022-12-07T00:43:41;12.27;;;7.22;;
4837;SDS011;2433;48.768;9.154;2022-12-07T00:46:08;8.15;;;6.07;;
4837;SDS011;2433;48.768;9.154;2022-12-07T00:48:34;9.23;;;7.07;;
4837;SDS011;2433;48.768;9.154;2022-12-07T00:50:59;9.37;;;6.70;;
4837;SDS011;2433;48.768;9.154;2022-12-07T00:53:26;11.23;;;6.33;;
4837;SDS011;2433;48.768;9.154;2022-12-07T00:55:52;12.50;;;6.75;;
4837;SDS011;2433;48.768;9.154;2022-12-07T00:58:18;9.17;;;6.23;;
4837;SDS011;2433;48.768;9.154;2022-12-07T01:00:43;11.77;;;7.90;;
4837;SDS011;2433;48.768;9.154;2022-12-07T01:03:10;10.73;;;8.17;;
4837;SDS011;2433;48.768;9.154;2022-12-07T01:05:37;10.75;;;6.47;;
4837;SDS011;2433;48.768;9.154;2022-12-07T01:08:03;13.33;;;7.13;;
4837;SDS011;2433;48.768;9.154;2022-12-07T01:10:29;13.95;;;7.53;;
4837;SDS011;2433;48.768;9.154;2022-12-07T01:12:56;13.50;;;7.68;;
4837;SDS011;2433;48.768;9.154;2022-12-07T01:15:22;9.98;;;7.65;;
4837;SDS011;2433;48.768;9.154;2022-12-07T01:17:47;12.20;;;7.53;;
4837;SDS011;2433;48.768;9.154;2022-12-07T01:20:13;9.77;;;6.00;;
4837;SDS011;2433;48.768;9.154;2022-12-07T01:22:42;9.60;;;6.87;;
4837;SDS011;2433;48.768;9.154;2022-12-07T01:25:09;8.73;;;5.38;;
4837;SDS011;2433;48.768;9.154;2022-12-07T01:27:36;10.50;;;6.47;;
4837;SDS011;2433;48.768;9.154;2022-12-07T01:30:02;9.10;;;7.13;;
4837;SDS011;2433;48.768;9.154;2022-12-07T01:32:29;9.38;;;7.18;;
4837;SDS011;2433;48.768;9.154;2022-12-07T01:34:55;8.70;;;7.10;;
4837;SDS011;2433;48.768;9.154;2022-12-07T01:37:21;11.87;;;6.60;;
4837;SDS011;2433;48.768;9.154;2022-12-07T01:39:50;12.33;;;7.90;;
4837;SDS011;2433;48.768;9.154;2022-12-07T01:42:16;9.38;;;6.60;;
4837;SDS011;2433;48.768;9.154;2022-12-07T01:47:56;8.75;;;7.13;;
4837;SDS011;2433;48.768;9.154;2022-12-07T01:50:24;8.55;;;6.70;;
4837;SDS011;2433;48.768;9.154;2022-12-07T01:52:52;10.02;;;6.88;;
4837;SDS011;2433;48.768;9.154;2022-12-07T01:55:19;11.85;;;7.55;;
4837;SDS011;2433;48.768;9.154;2022-12-07T01:57:46;7.00;;;4.88;;
4837;SDS011;2433;48.768;9.154;2022-12-07T02:00:14;13.00;;;8.30;;
4837;SDS011;2433;48.768;9.154;2022-12-07T02:05:14;10.07;;;5.93;;
4837;SDS011;2433;48.768;9.154;2022-12-07T02:07:42;11.15;;;7.22;;
4837;SDS011;2433;48.768;9.154;2022-12-07T02:10:18;10.93;;;7.03;;
4837;SDS011;2433;48.768;9.154;2022-12-07T02:12:47;9.82;;;6.18;;
4837;SDS011;2433;48.768;9.154;2022-12-07T02:15:14;13.07;;;8.52;;
4837;SDS011;2433;48.768;9.154;2022-12-07T02:17:52;10.13;;;6.93;;
4837;SDS011;2433;48.768;9.154;2022-12-07T02:23:01;9.30;;;5.75;;
4837;SDS011;2433;48.768;9.154;2022-12-07T02:28:20;8.32;;;6.43;;
4837;SDS011;2433;48.768;9.154;2022-12-07T02:30:59;8.80;;;5.90;;
4837;SDS011;2433;48.768;9.154;2022-12-07T02:33:28;10.05;;;6.65;;
4837;SDS011;2433;48.768;9.154;2022-12-07T02:38:43;8.40;;;6.20;;
4837;SDS011;2433;48.768;9.154;2022-12-07T02:43:50;9.32;;;5.35;;
4837;SDS011;2433;48.768;9.154;2022-12-07T02:46:20;8.20;;;5.45;;
4837;SDS011;2433;48.768;9.154;2022-12-07T02:48:47;8.30;;;5.88;;
4837;SDS011;2433;48.768;9.154;2022-12-07T02:51:14;6.13;;;4.82;;
4837;SDS011;2433;48.768;9.154;2022-12-07T02:53:40;6.73;;;5.03;;
4837;SDS011;2433;48.768;9.154;2022-12-07T03:04:46;8.98;;;4.97;;
4837;SDS011;2433;48.768;9.154;2022-12-07T03:10:01;5.95;;;4.30;;
4837;SDS011;2433;48.768;9.154;2022-12-07T03:12:35;10.20;;;5.60;;
4837;SDS011;2433;48.768;9.154;2022-12-07T03:15:10;7.53;;;5.57;;
4837;SDS011;2433;48.768;9.154;2022-12-07T03:17:40;7.18;;;5.38;;
4837;SDS011;2433;48.768;9.154;2022-12-07T03:20:08;7.25;;;5.78;;
4837;SDS011;2433;48.768;9.154;2022-12-07T03:22:35;8.57;;;4.95;;
4837;SDS011;2433;48.768;9.154;2022-12-07T03:25:08;7.05;;;5.28;;
4837;SDS011;2433;48.768;9.154;2022-12-07T03:32:37;7.10;;;4.78;;
4837;SDS011;2433;48.768;9.154;2022-12-07T03:38:13;5.88;;;4.93;;
4837;SDS011;2433;48.768;9.154;2022-12-07T03:40:50;6.50;;;4.43;;
4837;SDS011;2433;48.768;9.154;2022-12-07T03:43:27;5.10;;;3.80;;
4837;SDS011;2433;48.768;9.154;2022-12-07T03:48:41;7.10;;;4.03;;
4837;SDS011;2433;48.768;9.154;2022-12-07T03:51:18;5.68;;;4.10;;
4837;SDS011;2433;48.768;9.154;2022-12-07T03:53:54;6.38;;;4.90;;
4837;SDS011;2433;48.768;9.154;2022-12-07T03:56:27;10.10;;;6.40;;
4837;SDS011;2433;48.768;9.154;2022-12-07T03:58:54;6.85;;;5.22;;
4837;SDS011;2433;48.768;9.154;2022-12-07T04:01:19;6.20;;;4.80;;
4837;SDS011;2433;48.768;9.154;2022-12-07T04:03:45;7.23;;;4.77;;
4837;SDS011;2433;48.768;9.154;2022-12-07T04:06:10;5.27;;;4.43;;
4837;SDS011;2433;48.768;9.154;2022-12-07T04:08:36;5.97;;;4.43;;
4837;SDS011;2433;48.768;9.154;2022-12-07T04:11:02;7.07;;;4.70;;
4837;SDS011;2433;48.768;9.154;2022-12-07T04:13:27;6.95;;;4.88;;
4837;SDS011;2433;48.768;9.154;2022-12-07T04:15:53;6.77;;;3.70;;
4837;SDS011;2433;48.768;9.154;2022-12-07T04:18:18;4.97;;;3.70;;
4837;SDS011;2433;48.768;9.154;2022-12-07T04:20:45;5.80;;;3.47;;
4837;SDS011;2433;48.768;9.154;2022-12-07T04:23:11;5.05;;;3.28;;
4837;SDS011;2433;48.768;9.154;2022-12-07T04:25:36;6.53;;;4.00;;
4837;SDS011;2433;48.768;9.154;2022-12-07T04:28:02;4.67;;;3.37;;
4837;SDS011;2433;48.768;9.154;2022-12-07T04:30:28;3.60;;;3.13;;
4837;SDS011;2433;48.768;9.154;2022-12-07T04:32:53;2.40;;;1.90;;
4837;SDS011;2433;48.768;9.154;2022-12-07T04:35:19;3.20;;;2.53;;
4837;SDS011;2433;48.768;9.154;2022-12-07T04:37:44;3.67;;;2.60;;
4837;SDS011;2433;48.768;9.154;2022-12-07T04:40:10;4.20;;;3.07;;
4837;SDS011;2433;48.768;9.154;2022-12-07T04:42:36;4.63;;;3.55;;
4837;SDS011;2433;48.768;9.154;2022-12-07T04:45:02;6.68;;;3.67;;
4837;SDS011;2433;48.768;9.154;2022-12-07T04:47:28;5.80;;;4.00;;
4837;SDS011;2433;48.768;9.154;2022-12-07T04:49:54;5.93;;;3.90;;
4837;SDS011;2433;48.768;9.154;2022-12-07T04:52:19;5.40;;;3.30;;
4837;SDS011;2433;48.768;9.154;2022-12-07T04:54:45;4.80;;;3.13;;
4837;SDS011;2433;48.768;9.154;2022-12-07T04:57:11;3.40;;;2.00;;
4837;SDS011;2433;48.768;9.154;2022-12-07T04:59:36;2.93;;;2.60;;
4837;SDS011;2433;48.768;9.154;2022-12-07T05:02:02;2.53;;;2.00;;
4837;SDS011;2433;48.768;9.154;2022-12-07T05:04:27;3.43;;;2.20;;
4837;SDS011;2433;48.768;9.154;2022-12-07T05:06:53;2.07;;;1.83;;
4837;SDS011;2433;48.768;9.154;2022-12-07T05:09:18;3.43;;;2.43;;
4837;SDS011;2433;48.768;9.154;2022-12-07T05:11:44;4.47;;;2.37;;
4837;SDS011;2433;48.768;9.154;2022-12-07T05:14:14;4.47;;;2.70;;
4837;SDS011;2433;48.768;9.154;2022-12-07T05:16:41;2.40;;;1.90;;
4837;SDS011;2433;48.768;9.154;2022-12-07T05:19:07;2.58;;;2.22;;
4837;SDS011;2433;48.768;9.154;2022-12-07T05:21:33;4.35;;;2.90;;
4837;SDS011;2433;48.768;9.154;2022-12-07T05:23:59;4.63;;;2.90;;
4837;SDS011;2433;48.768;9.154;2022-12-07T05:26:25;3.80;;;2.30;;
4837;SDS011;2433;48.768;9.154;2022-12-07T05:28:51;3.53;;;2.50;;
4837;SDS011;2433;48.768;9.154;2022-12-07T05:31:17;3.85;;;3.08;;
4837;SDS011;2433;48.768;9.154;2022-12-07T05:33:43;4.40;;;3.23;;
4837;SDS011;2433;48.768;9.154;2022-12-07T05:36:09;6.10;;;4.23;;
4837;SDS011;2433;48.768;9.154;2022-12-07T05:38:34;3.33;;;2.93;;
4837;SDS011;2433;48.768;9.154;2022-12-07T05:41:03;8.70;;;3.97;;
4837;SDS011;2433;48.768;9.154;2022-12-07T05:43:30;5.25;;;3.97;;
4837;SDS011;2433;48.768;9.154;2022-12-07T05:45:55;8.80;;;4.17;;
4837;SDS011;2433;48.768;9.154;2022-12-07T05:48:21;6.00;;;4.53;;
4837;SDS011;2433;48.768;9.154;2022-12-07T05:50:47;6.70;;;4.30;;
4837;SDS011;2433;48.768;9.154;2022-12-07T05:53:16;5.63;;;4.32;;
4837;SDS011;2433;48.768;9.154;2022-12-07T05:55:42;8.35;;;4.88;;
4837;SDS011;2433;48.768;9.154;2022-12-07T05:58:08;7.97;;;4.60;;
4837;SDS011;2433;48.768;9.154;2022-12-07T06:00:54;5.43;;;4.68;;
4837;SDS011;2433;48.768;9.154;2022-12-07T06:03:20;6.00;;;4.25;;
4837;SDS011;2433;48.768;9.154;2022-12-07T06:05:46;4.43;;;4.03;;
4837;SDS011;2433;48.768;9.154;2022-12-07T06:08:11;6.83;;;4.40;;
4837;SDS011;2433;48.768;9.154;2022-12-07T06:10:37;6.50;;;4.87;;
4837;SDS011;2433;48.768;9.154;2022-12-07T06:13:02;7.13;;;4.23;;
4837;SDS011;2433;48.768;9.154;2022-12-07T06:15:28;5.70;;;4.00;;
4837;SDS011;2433;48.768;9.154;2022-12-07T06:17:54;7.60;;;5.07;;
4837;SDS011;2433;48.768;9.154;2022-12-07T06:20:19;5.28;;;3.15;;
4837;SDS011;2433;48.768;9.154;2022-12-07T06:22:45;6.03;;;4.00;;
4837;SDS011;2433;48.768;9.154;2022-12-07T06:25:11;7.30;;;4.70;;
4837;SDS011;2433;48.768;9.154;2022-12-07T06:27:36;6.20;;;4.57;;
4837;SDS011;2433;48.768;9.154;2022-12-07T06:30:02;8.23;;;5.60;;
4837;SDS011;2433;48.768;9.154;2022-12-07T06:32:35;5.18;;;4.57;;
4837;SDS011;2433;48.768;9.154;2022-12-07T06:35:01;6.53;;;4.32;;
4837;SDS011;2433;48.768;9.154;2022-12-07T06:37:28;5.38;;;4.00;;
4837;SDS011;2433;48.768;9.154;2022-12-07T06:39:53;3.90;;;3.10;;
4837;SDS011;2433;48.768;9.154;2022-12-07T06:42:19;6.90;;;3.70;;
4837;SDS011;2433;48.768;9.154;2022-12-07T06:44:47;6.43;;;3.97;;
4837;SDS011;2433;48.768;9.154;2022-12-07T06:47:22;5.13;;;3.25;;
4837;SDS011;2433;48.768;9.154;2022-12-07T06:49:47;5.33;;;3.10;;
4837;SDS011;2433;48.768;9.154;2022-12-07T06:52:13;4.40;;;3.10;;
4837;SDS011;2433;48.768;9.154;2022-12-07T06:54:38;4.47;;;3.17;;
4837;SDS011;2433;48.768;9.154;2022-12-07T06:57:04;7.07;;;4.00;;
4837;SDS011;2433;48.768;9.154;2022-12-07T06:59:30;7.20;;;5.07;;
4837;SDS011;2433;48.768;9.154;2022-12-07T07:01:55;6.87;;;4.40;;
4837;SDS011;2433;48.768;9.154;2022-12-07T07:04:21;6.00;;;4.30;;
4837;SDS011;2433;48.768;9.154;2022-12-07T07:06:46;8.00;;;4.63;;
4837;SDS011;2433;48.768;9.154;2022-12-07T07:09:12;5.90;;;3.97;;
4837;SDS011;2433;48.768;9.154;2022-12-07T07:11:37;8.10;;;4.23;;
4837;SDS011;2433;48.768;9.154;2022-12-07T07:14:03;5.50;;;4.00;;
4837;SDS011;2433;48.768;9.154;2022-12-07T07:16:29;6.50;;;3.57;;
4837;SDS011;2433;48.768;9.154;2022-12-07T07:18:56;5.78;;;3.60;;
4837;SDS011;2433;48.768;9.154;2022-12-07T07:21:21;7.13;;;3.73;;
4837;SDS011;2433;48.768;9.154;2022-12-07T07:23:47;5.90;;;3.70;;
4837;SDS011;2433;48.768;9.154;2022-12-07T07:26:12;8.03;;;4.37;;
4837;SDS011;2433;48.768;9.154;2022-12-07T07:28:38;8.90;;;4.00;;
4837;SDS011;2433;48.768;9.154;2022-12-07T07:31:04;6.47;;;3.20;;
4837;SDS011;2433;48.768;9.154;2022-12-07T07:33:29;10.80;;;4.20;;
4837;SDS011;2433;48.768;9.154;2022-12-07T07:35:55;7.60;;;4.40;;
4837;SDS011;2433;48.768;9.154;2022-12-07T07:38:20;8.10;;;3.90;;
4837;SDS011;2433;48.768;9.154;2022-12-07T07:40:46;6.90;;;4.50;;
4837;SDS011;2433;48.768;9.154;2022-12-07T07:43:11;6.53;;;4.43;;
4837;SDS011;2433;48.768;9.154;2022-12-07T07:45:37;6.03;;;4.23;;
4837;SDS011;2433;48.768;9.154;2022-12-07T07:48:02;4.83;;;4.10;;
4837;SDS011;2433;48.768;9.154;2022-12-07T07:50:28;7.53;;;4.30;;
4837;SDS011;2433;48.768;9.154;2022-12-07T07:52:54;8.90;;;5.00;;
4837;SDS011;2433;48.768;9.154;2022-12-07T07:55:19;6.40;;;3.50;;
4837;SDS011;2433;48.768;9.154;2022-12-07T07:57:45;7.17;;;4.47;;
4837;SDS011;2433;48.768;9.154;2022-12-07T08:00:12;3.73;;;3.43;;
4837;SDS011;2433;48.768;9.154;2022-12-07T08:02:39;6.20;;;4.32;;
4837;SDS011;2433;48.768;9.154;2022-12-07T08:05:06;4.85;;;3.30;;
4837;SDS011;2433;48.768;9.154;2022-12-07T08:07:32;4.77;;;3.73;;
4837;SDS011;2433;48.768;9.154;2022-12-07T08:09:57;5.87;;;3.53;;
4837;SDS011;2433;48.768;9.154;2022-12-07T08:12:23;3.40;;;3.00;;
4837;SDS011;2433;48.768;9.154;2022-12-07T08:14:48;4.53;;;3.13;;
4837;SDS011;2433;48.768;9.154;2022-12-07T08:17:14;4.17;;;2.93;;
4837;SDS011;2433;48.768;9.154;2022-12-07T08:19:39;7.73;;;4.27;;
4837;SDS011;2433;48.768;9.154;2022-12-07T08:22:05;6.80;;;4.30;;
4837;SDS011;2433;48.768;9.154;2022-12-07T08:24:33;5.77;;;3.30;;
4837;SDS011;2433;48.768;9.154;2022-12-07T08:26:59;4.95;;;2.92;;
4837;SDS011;2433;48.768;9.154;2022-12-07T08:29:24;4.83;;;2.90;;
4837;SDS011;2433;48.768;9.154;2022-12-07T08:31:50;5.43;;;3.43;;
4837;SDS011;2433;48.768;9.154;2022-12-07T08:34:16;4.50;;;3.20;;
4837;SDS011;2433;48.768;9.154;2022-12-07T08:36:41;4.63;;;3.27;;
4837;SDS011;2433;48.768;9.154;2022-12-07T08:39:07;4.97;;;3.17;;
4837;SDS011;2433;48.768;9.154;2022-12-07T08:41:32;5.17;;;3.10;;
4837;SDS011;2433;48.768;9.154;2022-12-07T08:43:58;5.33;;;2.70;;
4837;SDS011;2433;48.768;9.154;2022-12-07T08:46:44;3.43;;;2.63;;
4837;SDS011;2433;48.768;9.154;2022-12-07T08:49:17;5.35;;;3.38;;
4837;SDS011;2433;48.768;9.154;2022-12-07T08:51:44;5.85;;;3.65;;
4837;SDS011;2433;48.768;9.154;2022-12-07T08:54:11;5.93;;;2.87;;
4837;SDS011;2433;48.768;9.154;2022-12-07T08:56:38;3.83;;;3.47;;
4837;SDS011;2433;48.768;9.154;2022-12-07T08:59:04;4.23;;;2.90;;
4837;SDS011;2433;48.768;9.154;2022-12-07T09:01:30;4.22;;;3.28;;
4837;SDS011;2433;48.768;9.154;2022-12-07T09:03:56;3.83;;;2.33;;
4837;SDS011;2433;48.768;9.154;2022-12-07T09:06:21;4.53;;;3.27;;
4837;SDS011;2433;48.768;9.154;2022-12-07T09:08:48;3.10;;;2.80;;
4837;SDS011;2433;48.768;9.154;2022-12-07T09:11:15;4.93;;;3.17;;
4837;SDS011;2433;48.768;9.154;2022-12-07T09:13:40;3.53;;;2.57;;
4837;SDS011;2433;48.768;9.154;2022-12-07T09:16:06;4.37;;;2.37;;
4837;SDS011;2433;48.768;9.154;2022-12-07T09:18:31;3.03;;;2.43;;
4837;SDS011;2433;48.768;9.154;2022-12-07T09:20:57;4.27;;;2.53;;
4837;SDS011;2433;48.768;9.154;2022-12-07T09:23:23;5.53;;;3.50;;
4837;SDS011;2433;48.768;9.154;2022-12-07T09:25:49;4.37;;;3.20;;
4837;SDS011;2433;48.768;9.154;2022-12-07T09:28:14;5.10;;;2.63;;
4837;SDS011;2433;48.768;9.154;2022-12-07T09:30:44;2.87;;;2.47;;
4837;SDS011;2433;48.768;9.154;2022-12-07T09:33:11;5.38;;;2.80;;
4837;SDS011;2433;48.768;9.154;2022-12-07T09:35:36;4.00;;;3.00;;
4837;SDS011;2433;48.768;9.154;2022-12-07T09:38:02;3.43;;;2.67;;
4837;SDS011;2433;48.768;9.154;2022-12-07T09:40:27;4.17;;;2.90;;
4837;SDS011;2433;48.768;9.154;2022-12-07T09:42:53;4.63;;;3.10;;
4837;SDS011;2433;48.768;9.154;2022-12-07T09:45:24;4.00;;;2.40;;
4837;SDS011;2433;48.768;9.154;2022-12-07T09:47:52;6.32;;;3.35;;
4837;SDS011;2433;48.768;9.154;2022-12-07T09:50:19;3.60;;;2.67;;
4837;SDS011;2433;48.768;9.154;2022-12-07T09:52:47;6.43;;;3.65;;
4837;SDS011;2433;48.768;9.154;2022-12-07T09:55:14;4.45;;;2.70;;
4837;SDS011;2433;48.768;9.154;2022-12-07T09:57:42;3.60;;;2.60;;
4837;SDS011;2433;48.768;9.154;2022-12-07T10:00:16;4.40;;;2.97;;
4837;SDS011;2433;48.768;9.154;2022-12-07T10:02:46;3.40;;;2.30;;
4837;SDS011;2433;48.768;9.154;2022-12-07T10:05:30;3.40;;;2.47;;
4837;SDS011;2433;48.768;9.154;2022-12-07T10:08:02;5.15;;;3.03;;
4837;SDS011;2433;48.768;9.154;2022-12-07T10:10:33;4.00;;;2.80;;
4837;SDS011;2433;48.768;9.154;2022-12-07T10:15:40;4.03;;;2.90;;
4837;SDS011;2433;48.768;9.154;2022-12-07T10:21:30;2.30;;;2.10;;
4837;SDS011;2433;48.768;9.154;2022-12-07T10:24:12;6.85;;;3.80;;
4837;SDS011;2433;48.768;9.154;2022-12-07T10:31:42;5.60;;;2.00;;
4837;SDS011;2433;48.768;9.154;2022-12-07T10:34:31;3.50;;;2.70;;
4837;SDS011;2433;48.768;9.154;2022-12-07T10:37:07;3.72;;;1.70;;
4837;SDS011;2433;48.768;9.154;2022-12-07T10:39:44;2.00;;;1.80;;
4837;SDS011;2433;48.768;9.154;2022-12-07T10:42:21;4.60;;;2.63;;
4837;SDS011;2433;48.768;9.154;2022-12-07T10:47:38;4.07;;;2.38;;
4837;SDS011;2433;48.768;9.154;2022-12-07T10:53:44;3.83;;;2.55;;
4837;SDS011;2433;48.768;9.154;2022-12-07T11:01:45;2.80;;;2.50;;
4837;SDS011;2433;48.768;9.154;2022-12-07T11:06:51;4.30;;;2.15;;
4837;SDS011;2433;48.768;9.154;2022-12-07T11:15:13;3.07;;;2.43;;
4837;SDS011;2433;48.768;9.154;2022-12-07T11:17:46;8.17;;;2.50;;
4837;SDS011;2433;48.768;9.154;2022-12-07T11:20:26;4.37;;;2.10;;
4837;SDS011;2433;48.768;9.154;2022-12-07T11:25:32;2.90;;;1.97;;
4837;SDS011;2433;48.768;9.154;2022-12-07T11:30:42;4.30;;;2.60;;
4837;SDS011;2433;48.768;9.154;2022-12-07T11:33:18;3.67;;;2.57;;
4837;SDS011;2433;48.768;9.154;2022-12-07T11:36:11;2.30;;;2.10;;
4837;SDS011;2433;48.768;9.154;2022-12-07T11:38:50;2.63;;;2.43;;
4837;SDS011;2433;48.768;9.154;2022-12-07T11:41:22;2.37;;;1.73;;
4837;SDS011;2433;48.768;9.154;2022-12-07T11:43:53;6.90;;;2.63;;
4837;SDS011;2433;48.768;9.154;2022-12-07T11:46:23;4.07;;;2.72;;
4837;SDS011;2433;48.768;9.154;2022-12-07T11:51:22;2.47;;;1.60;;
4837;SDS011;2433;48.768;9.154;2022-12-07T11:53:51;4.20;;;1.90;;
4837;SDS011;2433;48.768;9.154;2022-12-07T11:56:23;2.95;;;1.50;;
4837;SDS011;2433;48.768;9.154;2022-12-07T11:59:12;5.43;;;2.40;;
4837;SDS011;2433;48.768;9.154;2022-12-07T12:06:38;1.55;;;1.45;;
4837;SDS011;2433;48.768;9.154;2022-12-07T12:09:15;2.60;;;2.40;;
4837;SDS011;2433;48.768;9.154;2022-12-07T12:14:46;3.38;;;2.38;;
4837;SDS011;2433;48.768;9.154;2022-12-07T12:20:26;4.43;;;2.97;;
4837;SDS011;2433;48.768;9.154;2022-12-07T12:23:10;4.13;;;3.35;;
4837;SDS011;2433;48.768;9.154;2022-12-07T12:25:39;5.20;;;3.33;;
4837;SDS011;2433;48.768;9.154;2022-12-07T12:28:16;4.90;;;2.58;;
4837;SDS011;2433;48.768;9.154;2022-12-07T12:30:46;5.35;;;3.67;;
4837;SDS011;2433;48.768;9.154;2022-12-07T12:47:01;3.50;;;2.90;;
4837;SDS011;2433;48.768;9.154;2022-12-07T12:51:58;4.95;;;3.15;;
4837;SDS011;2433;48.768;9.154;2022-12-07T12:54:26;4.28;;;2.63;;
4837;SDS011;2433;48.768;9.154;2022-12-07T13:02:20;6.40;;;4.32;;
4837;SDS011;2433;48.768;9.154;2022-12-07T13:04:52;4.57;;;3.55;;
4837;SDS011;2433;48.768;9.154;2022-12-07T13:15:42;4.80;;;3.67;;
4837;SDS011;2433;48.768;9.154;2022-12-07T13:34:03;5.22;;;4.20;;
4837;SDS011;2433;48.768;9.154;2022-12-07T13:36:48;4.13;;;2.40;;
4837;SDS011;2433;48.768;9.154;2022-12-07T13:41:41;4.63;;;3.20;;
4837;SDS011;2433;48.768;9.154;2022-12-07T13:44:12;5.45;;;3.47;;
4837;SDS011;2433;48.768;9.154;2022-12-07T13:49:53;4.68;;;2.85;;
4837;SDS011;2433;48.768;9.154;2022-12-07T13:52:21;2.47;;;2.20;;
4837;SDS011;2433;48.768;9.154;2022-12-07T13:54:49;4.10;;;2.63;;
4837;SDS011;2433;48.768;9.154;2022-12-07T13:57:16;3.20;;;2.80;;
4837;SDS011;2433;48.768;9.154;2022-12-07T13:59:42;3.28;;;2.70;;
4837;SDS011;2433;48.768;9.154;2022-12-07T14:02:21;3.03;;;2.10;;
4837;SDS011;2433;48.768;9.154;2022-12-07T14:04:50;4.07;;;2.50;;
4837;SDS011;2433;48.768;9.154;2022-12-07T14:07:21;3.83;;;2.95;;
4837;SDS011;2433;48.768;9.154;2022-12-07T14:10:01;4.05;;;2.90;;
4837;SDS011;2433;48.768;9.154;2022-12-07T14:12:46;4.88;;;3.17;;
4837;SDS011;2433;48.768;9.154;2022-12-07T14:15:19;3.17;;;2.73;;
4837;SDS011;2433;48.768;9.154;2022-12-07T14:17:53;4.82;;;3.10;;
4837;SDS011;2433;48.768;9.154;2022-12-07T14:20:39;3.17;;;2.20;;
4837;SDS011;2433;48.768;9.154;2022-12-07T14:23:20;4.25;;;2.65;;
4837;SDS011;2433;48.768;9.154;2022-12-07T14:25:53;4.90;;;2.47;;
4837;SDS011;2433;48.768;9.154;2022-12-07T14:28:25;3.92;;;3.40;;
4837;SDS011;2433;48.768;9.154;2022-12-07T14:30:55;2.65;;;2.30;;
4837;SDS011;2433;48.768;9.154;2022-12-07T14:33:21;6.20;;;2.90;;
4837;SDS011;2433;48.768;9.154;2022-12-07T14:35:48;5.35;;;3.10;;
4837;SDS011;2433;48.768;9.154;2022-12-07T14:38:14;4.03;;;2.80;;
4837;SDS011;2433;48.768;9.154;2022-12-07T14:40:40;4.07;;;3.17;;
4837;SDS011;2433;48.768;9.154;2022-12-07T14:43:08;3.97;;;2.67;;
4837;SDS011;2433;48.768;9.154;2022-12-07T14:45:37;4.60;;;2.80;;
4837;SDS011;2433;48.768;9.154;2022-12-07T14:48:03;3.75;;;2.78;;
4837;SDS011;2433;48.768;9.154;2022-12-07T14:50:29;4.37;;;2.93;;
4837;SDS011;2433;48.768;9.154;2022-12-07T14:53:01;7.90;;;3.90;;
4837;SDS011;2433;48.768;9.154;2022-12-07T14:55:30;4.07;;;3.28;;
4837;SDS011;2433;48.768;9.154;2022-12-07T14:57:57;6.13;;;3.10;;
4837;SDS011;2433;48.768;9.154;2022-12-07T15:00:24;3.95;;;3.45;;
4837;SDS011;2433;48.768;9.154;2022-12-07T15:02:51;3.58;;;2.85;;
4837;SDS011;2433;48.768;9.154;2022-12-07T15:05:17;4.43;;;3.22;;
4837;SDS011;2433;48.768;9.154;2022-12-07T15:07:43;5.10;;;3.78;;
4837;SDS011;2433;48.768;9.154;2022-12-07T15:10:14;5.63;;;3.95;;
4837;SDS011;2433;48.768;9.154;2022-12-07T15:12:43;4.57;;;3.70;;
4837;SDS011;2433;48.768;9.154;2022-12-07T15:15:09;8.93;;;4.43;;
4837;SDS011;2433;48.768;9.154;2022-12-07T15:17:35;6.40;;;4.10;;
4837;SDS011;2433;48.768;9.154;2022-12-07T15:20:00;6.07;;;4.30;;
4837;SDS011;2433;48.768;9.154;2022-12-07T15:22:26;5.27;;;4.33;;
4837;SDS011;2433;48.768;9.154;2022-12-07T15:24:52;5.80;;;3.90;;
4837;SDS011;2433;48.768;9.154;2022-12-07T15:27:17;8.90;;;4.07;;
4837;SDS011;2433;48.768;9.154;2022-12-07T15:29:43;6.30;;;2.90;;
4837;SDS011;2433;48.768;9.154;2022-12-07T15:32:08;8.00;;;3.63;;
4837;SDS011;2433;48.768;9.154;2022-12-07T15:34:34;3.47;;;3.13;;
4837;SDS011;2433;48.768;9.154;2022-12-07T15:36:59;9.10;;;3.33;;
4837;SDS011;2433;48.768;9.154;2022-12-07T15:39:25;3.83;;;3.07;;
4837;SDS011;2433;48.768;9.154;2022-12-07T15:41:51;6.57;;;3.33;;
4837;SDS011;2433;48.768;9.154;2022-12-07T15:44:16;5.80;;;3.47;;
4837;SDS011;2433;48.768;9.154;2022-12-07T15:47:00;8.23;;;3.47;;
4837;SDS011;2433;48.768;9.154;2022-12-07T15:49:26;4.63;;;3.50;;
4837;SDS011;2433;48.768;9.154;2022-12-07T15:51:52;4.18;;;3.17;;
4837;SDS011;2433;48.768;9.154;2022-12-07T15:54:22;7.93;;;4.03;;
4837;SDS011;2433;48.768;9.154;2022-12-07T15:56:49;5.30;;;4.50;;
4837;SDS011;2433;48.768;9.154;2022-12-07T15:59:14;6.97;;;4.07;;
4837;SDS011;2433;48.768;9.154;2022-12-07T16:01:40;4.83;;;4.00;;
4837;SDS011;2433;48.768;9.154;2022-12-07T16:04:06;5.63;;;4.23;;
4837;SDS011;2433;48.768;9.154;2022-12-07T16:06:31;5.73;;;3.93;;
4837;SDS011;2433;48.768;9.154;2022-12-07T16:08:57;5.70;;;3.60;;
4837;SDS011;2433;48.768;9.154;2022-12-07T16:11:23;8.00;;;4.90;;
4837;SDS011;2433;48.768;9.154;2022-12-07T16:13:48;6.87;;;4.77;;
4837;SDS011;2433;48.768;9.154;2022-12-07T16:16:15;5.93;;;4.40;;
4837;SDS011;2433;48.768;9.154;2022-12-07T16:18:42;7.20;;;4.88;;
4837;SDS011;2433;48.768;9.154;2022-12-07T16:21:08;6.40;;;4.22;;
4837;SDS011;2433;48.768;9.154;2022-12-07T16:23:34;6.90;;;4.83;;
4837;SDS011;2433;48.768;9.154;2022-12-07T16:26:03;7.23;;;4.70;;
4837;SDS011;2433;48.768;9.154;2022-12-07T16:28:33;6.43;;;4.75;;
4837;SDS011;2433;48.768;9.154;2022-12-07T16:30:59;6.07;;;4.70;;
4837;SDS011;2433;48.768;9.154;2022-12-07T16:33:29;8.75;;;5.35;;
4837;SDS011;2433;48.768;9.154;2022-12-07T16:35:55;8.27;;;4.67;;
4837;SDS011;2433;48.768;9.154;2022-12-07T16:38:20;6.63;;;4.83;;
4837;SDS011;2433;48.768;9.154;2022-12-07T16:40:46;7.57;;;4.93;;
4837;SDS011;2433;48.768;9.154;2022-12-07T16:43:13;9.63;;;5.18;;
4837;SDS011;2433;48.768;9.154;2022-12-07T16:45:38;9.93;;;5.40;;
4837;SDS011;2433;48.768;9.154;2022-12-07T16:48:04;6.13;;;4.57;;
4837;SDS011;2433;48.768;9.154;2022-12-07T16:50:30;10.53;;;6.13;;
4837;SDS011;2433;48.768;9.154;2022-12-07T16:52:55;8.30;;;5.40;;
4837;SDS011;2433;48.768;9.154;2022-12-07T16:55:21;7.33;;;5.90;;
4837;SDS011;2433;48.768;9.154;2022-12-07T16:57:46;9.30;;;5.50;;
4837;SDS011;2433;48.768;9.154;2022-12-07T17:00:12;8.87;;;5.60;;
4837;SDS011;2433;48.768;9.154;2022-12-07T17:02:37;10.97;;;6.70;;
4837;SDS011;2433;48.768;9.154;2022-12-07T17:05:03;11.27;;;5.70;;
4837;SDS011;2433;48.768;9.154;2022-12-07T17:07:29;9.00;;;5.77;;
4837;SDS011;2433;48.768;9.154;2022-12-07T17:09:55;9.73;;;6.37;;
4837;SDS011;2433;48.768;9.154;2022-12-07T17:12:20;8.63;;;5.87;;
4837;SDS011;2433;48.768;9.154;2022-12-07T17:14:46;7.70;;;4.93;;
4837;SDS011;2433;48.768;9.154;2022-12-07T17:17:30;9.10;;;5.55;;
4837;SDS011;2433;48.768;9.154;2022-12-07T17:19:56;7.90;;;5.20;;
4837;SDS011;2433;48.768;9.154;2022-12-07T17:22:21;6.60;;;4.40;;
4837;SDS011;2433;48.768;9.154;2022-12-07T17:24:47;12.93;;;5.00;;
4837;SDS011;2433;48.768;9.154;2022-12-07T17:27:12;7.60;;;4.87;;
4837;SDS011;2433;48.768;9.154;2022-12-07T17:29:38;7.40;;;4.67;;
4837;SDS011;2433;48.768;9.154;2022-12-07T17:32:03;7.70;;;4.50;;
4837;SDS011;2433;48.768;9.154;2022-12-07T17:34:29;6.40;;;4.85;;
4837;SDS011;2433;48.768;9.154;2022-12-07T17:36:55;9.67;;;5.53;;
4837;SDS011;2433;48.768;9.154;2022-12-07T17:39:20;11.77;;;6.07;;
4837;SDS011;2433;48.768;9.154;2022-12-07T17:41:46;11.52;;;6.55;;
4837;SDS011;2433;48.768;9.154;2022-12-07T17:44:31;7.35;;;5.38;;
4837;SDS011;2433;48.768;9.154;2022-12-07T17:46:56;10.00;;;6.70;;